Aeroporto :
LOGIN :

Iscrizione | Disclaimer

   EN    FR    IT 

 










Sommario :    VFR   VFR Marginale   IFR   IFR Intensivo   IFR Molto Intensivo
Visibilità : 
Base nubi : 
>= 8 km
>= 3000ft
5 / 8 km
1000 / 3000 ft
1500m / 5 km
500 / 1000 ft
800 / 1500m
200 / 500 ft
< 800m
< 200 ft
Simboli :   Temporali  Nebbia  Neve Forte  Precipitazioni Forti  Vento > 20 kt
SIGMETs :   Varie  Temporali  Ghiacco  Turbolenza  Onda orograficha  Ceneri Vulcaniche






- Altitudine del aeroporto : 989 ft
- Codice IATA : TRN


LIMF - Torino Caselle

ULTIMO METAR :
  • 162320Z VRB02KT 9999 FEW060 20/14 Q1014

METARs OBSOLETI :
  • 162250Z 31004KT 280V340 9999 SCT060 20/15 Q1014
  • 162220Z 28003KT 250V310 9999 SCT060 20/15 Q1014
  • 162150Z 34005KT 9999 SCT060 21/14 Q1014
  • 162120Z 35004KT 9999 FEW060 21/14 Q1013
  • 162050Z 35004KT 9999 FEW070 21/14 Q1013
  • 162020Z 36006KT 9999 FEW090 20/14 Q1013
  • 161950Z 33004KT 9999 FEW050 22/14 Q1012
  • 161920Z 34005KT 9999 FEW050 SCT110 22/14 Q1012
  • 161850Z 35004KT 9999 SCT060 23/15 Q1012

TAF TAF LIMF
Valido dal 17 a 00 ore il 18 a 00 ore UTC


162300Z 1700/1724 VRB03KT 9999 SCT050



MetMap, La meteo Aeronautica in un colpo d'occhio ! - Copyright ORBIFLY Dicembre 2007 - Disclaimer

ORBIFLY MET'MAP TEAM :

Programmazione e sviluppo : Alexandra Zaïnal
Concezione : Baudouin d'Aumeries
Supporto tecnico e logistico : Manuel Goepfert
Aiuto : Marc-Olivier Méhu
Aiuto per la traduzione : Arnaldo La Scala




FONTI E CREDITI :

   NOAA